Date,TemperatureHighF,TemperatureAvgF,TemperatureLowF,DewpointHighF,DewpointAvgF,DewpointLowF,HumidityHigh,HumidityAvg,HumidityLow,PressureMaxIn,PressureMinIn,WindSpeedMaxMPH,WindSpeedAvgMPH,GustSpeedMaxMPH,PrecipitationSumIn
2013-3-1,23,10,6,12,6,2,92,84,63,30.15,29.58,7,1,7,0.00
2013-3-2,21,14,8,15,10,0,90,85,72,30.30,30.15,6,0,6,0.00
2013-3-3,29,21,14,15,13,10,92,71,53,30.54,30.30,5,0,5,0.00
2013-3-4,33,27,20,15,12,10,66,54,43,30.58,30.44,5,0,5,0.00
2013-3-7,38,33,25,18,16,12,64,49,41,29.98,29.54,8,4,22,0.00
2013-3-8,43,39,36,23,20,16,56,47,42,29.74,29.61,5,2,14,0.03
2013-3-9,37,31,22,25,23,16,93,71,56,30.12,29.74,2,1,10,0.02
2013-3-10,26,21,18,24,17,11,94,82,63,30.41,30.13,3,1,9,0.00
2013-3-11,23,18,14,13,11,7,87,76,65,30.71,30.43,4,1,17,0.00
2013-3-12,23,16,11,7,2,-6,72,54,34,30.72,30.50,2,1,7,0.00
2013-3-13,15,8,-5,-1,-9,-18,55,47,36,30.49,30.37,29,4,29,0.01
2013-3-14,15,5,-6,-7,-13,-20,53,44,34,30.38,30.30,27,6,27,0.00
2013-3-15,20,12,7,-7,-11,-14,43,35,25,30.34,30.10,18,4,18,0.00
2013-3-16,24,16,9,3,-3,-9,50,43,37,30.33,30.14,13,2,13,0.00
2013-3-17,18,12,5,1,-1,-4,67,54,47,30.43,30.29,5,0,5,0.00
2013-3-18,16,10,4,2,-2,-6,80,60,45,30.29,30.16,6,1,8,0.00
2013-3-19,16,9,4,-1,-5,-10,65,54,39,30.28,30.18,8,1,8,0.00
2013-3-20,8,3,-5,2,-7,-12,83,65,50,30.19,30.10,10,1,10,0.00
2013-3-21,18,9,2,11,3,-1,88,76,49,30.28,30.15,11,3,11,0.00
2013-3-22,28,21,14,14,5,-1,61,49,41,30.19,29.83,16,4,16,0.00
2013-3-23,25,3,-4,17,-4,-11,89,74,56,30.22,29.83,12,2,12,0.00
2013-3-24,11,5,-1,4,-3,-10,86,68,54,30.21,29.91,6,0,6,0.00
2013-3-25,5,2,-1,2,-1,-5,87,85,80,29.93,29.78,8,1,12,0.00
2013-3-26,2,-3,-7,-5,-9,-13,95,76,57,30.38,29.93,14,2,14,0.00
2013-3-27,9,0,-10,-3,-9,-14,92,67,52,30.44,30.31,9,1,9,0.00
2013-3-28,30,19,9,11,3,-4,60,48,37,30.31,30.04,9,1,9,0.10
2013-3-29,41,32,26,18,14,9,53,46,36,30.04,29.97,8,1,9,0.03
2013-3-30,37,30,21,18,15,10,69,54,44,30.32,30.02,7,1,7,0.00
2013-3-31,37,32,28,27,22,15,90,68,52,30.36,30.25,7,1,7,0.00